Time;durP1;ratioP1;P1;durP2;ratioP2;P2;SDS_P1;SDS_P2;PMS_P1;PMS_P2;Temp;Humidity;BMP_temperature;BMP_pressure;BME280_temperature;BME280_humidity;BME280_pressure;Samples;Min_cycle;Max_cycle;Signal;HPM_P1;HPM_P2
2023/09/11 00:01:06;;;;;;;15.10;5.10;;;;;;;15.65;81.63;100325.65;109783;1277;22601;-78
2023/09/11 00:03:45;;;;;;;14.90;5.70;;;;;;;15.64;81.63;100318.85;109771;1273;22647;-78
2023/09/11 00:06:15;;;;;;;13.80;5.20;;;;;;;15.62;81.85;100314.90;109803;1283;22146;-78
2023/09/11 00:08:46;;;;;;;15.90;4.70;;;;;;;15.57;82.01;100317.82;109808;1283;22424;-78
2023/09/11 00:11:17;;;;;;;13.80;5.70;;;;;;;15.54;82.02;100315.47;109804;1277;23185;-78
2023/09/11 00:13:48;;;;;;;13.30;5.00;;;;;;;15.52;81.99;100314.91;109748;1284;22156;-78
2023/09/11 00:16:18;;;;;;;16.50;5.80;;;;;;;15.48;82.18;100310.51;109775;1277;22162;-78
2023/09/11 00:18:49;;;;;;;13.80;5.50;;;;;;;15.43;82.31;100310.64;109758;1284;23180;-77
2023/09/11 00:21:19;;;;;;;12.60;4.80;;;;;;;15.38;82.32;100308.88;109763;1277;22183;-78
2023/09/11 00:23:50;;;;;;;14.40;5.00;;;;;;;15.33;82.54;100308.88;109752;1277;22207;-78
2023/09/11 00:26:21;;;;;;;14.40;5.40;;;;;;;15.28;82.43;100306.98;109789;1284;22367;-78
2023/09/11 00:28:52;;;;;;;15.20;5.60;;;;;;;15.24;82.75;100307.09;109754;1277;22204;-78
2023/09/11 00:31:23;;;;;;;15.10;5.20;;;;;;;15.19;82.61;100303.80;109772;1284;22933;-77
2023/09/11 00:33:53;;;;;;;13.80;5.10;;;;;;;15.13;82.75;100306.56;109779;1278;22330;-78
2023/09/11 00:36:24;;;;;;;12.30;4.60;;;;;;;15.07;82.82;100303.58;109761;1284;22219;-77
2023/09/11 00:38:55;;;;;;;11.30;4.50;;;;;;;15.03;82.90;100306.28;109784;1284;22387;-77
2023/09/11 00:41:25;;;;;;;11.10;4.70;;;;;;;14.98;82.78;100303.83;109732;1280;22285;-78
2023/09/11 00:43:56;;;;;;;12.90;4.60;;;;;;;14.98;82.69;100300.35;109759;1273;22353;-78
2023/09/11 00:46:27;;;;;;;12.50;4.30;;;;;;;14.96;82.70;100303.83;109717;1277;22202;-78
2023/09/11 00:48:58;;;;;;;15.60;5.10;;;;;;;14.91;82.63;100302.63;109752;1284;23018;-78
2023/09/11 00:51:30;;;;;;;14.30;4.70;;;;;;;14.87;82.89;100304.30;109803;1284;22179;-78
2023/09/11 00:54:01;;;;;;;12.10;4.70;;;;;;;14.85;82.98;100302.36;109764;1277;22168;-78
2023/09/11 00:56:32;;;;;;;12.00;4.50;;;;;;;14.83;83.04;100295.35;109775;1283;22510;-78
2023/09/11 00:59:05;;;;;;;13.60;5.00;;;;;;;14.80;82.99;100296.58;109775;1283;22199;-78
2023/09/11 01:01:37;;;;;;;12.90;4.70;;;;;;;14.77;83.00;100293.86;109785;1283;22836;-78
2023/09/11 01:04:10;;;;;;;13.90;4.80;;;;;;;14.73;83.15;100295.89;109767;1284;22869;-77
2023/09/11 01:06:41;;;;;;;13.90;4.60;;;;;;;14.69;83.42;100293.98;109811;1283;22160;-77
2023/09/11 01:09:12;;;;;;;12.90;4.20;;;;;;;14.66;83.48;100296.22;109813;1277;22244;-78
2023/09/11 01:11:43;;;;;;;11.90;4.50;;;;;;;14.61;83.63;100295.09;109825;1283;22227;-78
2023/09/11 01:14:14;;;;;;;14.10;4.70;;;;;;;14.57;83.60;100293.98;109780;1283;22214;-78
2023/09/11 01:16:52;;;;;;;15.80;4.40;;;;;;;14.53;83.60;100294.80;109757;1283;22914;-78
2023/09/11 01:19:42;;;;;;;14.50;5.20;;;;;;;14.51;83.59;100292.60;109709;1283;22231;-77
2023/09/11 01:22:33;;;;;;;15.30;5.40;;;;;;;14.47;83.62;100292.17;109746;1277;22333;-78
2023/09/11 01:25:12;;;;;;;;;;;;;;;14.44;83.93;100289.66;109822;1276;22372;-78
2023/09/11 01:28:23;;;;;;;13.10;4.90;;;;;;;14.40;83.91;100287.55;109787;1277;22150;-78
2023/09/11 01:30:57;;;;;;;14.10;5.80;;;;;;;14.37;84.07;100290.23;109402;1283;22361;-77
2023/09/11 01:33:28;;;;;;;14.40;5.10;;;;;;;14.35;84.21;100285.73;109452;1288;22210;-78
2023/09/11 01:35:59;;;;;;;14.20;5.30;;;;;;;14.34;84.33;100287.15;109394;1288;22209;-78
2023/09/11 01:38:29;;;;;;;11.40;5.20;;;;;;;14.32;84.40;100287.65;109446;1289;22297;-78
2023/09/11 01:41:02;;;;;;;14.40;5.70;;;;;;;14.31;84.60;100289.75;109472;1283;22219;-77
2023/09/11 01:43:38;;;;;;;14.50;5.60;;;;;;;14.30;84.51;100287.65;109456;1286;22225;-78
2023/09/11 01:46:09;;;;;;;14.20;6.20;;;;;;;14.29;84.66;100287.04;109377;1283;23131;-78
2023/09/11 01:48:43;;;;;;;14.80;5.30;;;;;;;14.28;84.77;100286.28;109402;1288;22306;-77
2023/09/11 01:51:15;;;;;;;15.40;6.20;;;;;;;14.26;84.73;100285.25;109396;1286;22176;-77
2023/09/11 01:53:49;;;;;;;12.90;5.20;;;;;;;14.25;84.88;100284.79;109412;1288;22268;-78
2023/09/11 01:56:20;;;;;;;16.30;6.10;;;;;;;14.23;84.87;100284.83;109394;1289;22405;-78
2023/09/11 01:58:51;;;;;;;13.20;5.10;;;;;;;14.20;85.02;100289.36;109457;1288;22864;-78
2023/09/11 02:01:22;;;;;;;14.30;5.70;;;;;;;14.18;85.08;100287.71;109445;1288;22388;-78
2023/09/11 02:03:53;;;;;;;12.10;4.80;;;;;;;14.18;85.02;100286.63;109429;1289;22314;-78
2023/09/11 02:06:24;;;;;;;14.20;6.00;;;;;;;14.16;85.22;100286.33;109493;1283;22159;-77
2023/09/11 02:08:56;;;;;;;13.40;5.60;;;;;;;14.15;85.46;100283.00;109763;1284;22427;-78
2023/09/11 02:11:27;;;;;;;20.30;6.00;;;;;;;14.13;85.50;100282.37;109787;1284;22158;-78
2023/09/11 02:13:57;;;;;;;16.40;6.70;;;;;;;14.12;85.85;100283.40;109785;1277;22327;-78
2023/09/11 02:16:28;;;;;;;12.50;5.60;;;;;;;14.12;85.92;100287.11;109725;1277;22289;-77
2023/09/11 02:18:59;;;;;;;16.10;6.50;;;;;;;14.11;85.92;100281.76;109778;1284;22325;-78
2023/09/11 02:21:29;;;;;;;18.30;6.70;;;;;;;14.09;85.91;100279.51;109791;1284;22174;-77
2023/09/11 02:24:00;;;;;;;15.70;6.40;;;;;;;14.08;86.14;100280.36;109768;1284;22259;-78
2023/09/11 02:26:31;;;;;;;15.50;6.50;;;;;;;14.07;86.16;100278.98;109711;1280;22369;-78
2023/09/11 02:29:01;;;;;;;16.50;6.60;;;;;;;14.06;86.27;100283.05;109734;1284;22280;-77
2023/09/11 02:31:32;;;;;;;19.10;6.50;;;;;;;14.04;86.34;100281.21;109753;1284;22591;-77
2023/09/11 02:34:03;;;;;;;16.90;6.10;;;;;;;14.02;86.39;100281.40;109754;1284;22207;-77
2023/09/11 02:36:33;;;;;;;14.50;5.60;;;;;;;13.99;86.30;100280.32;109769;1276;22546;-78
2023/09/11 02:39:04;;;;;;;15.10;6.30;;;;;;;13.97;86.40;100280.09;109769;1284;22240;-78
2023/09/11 02:41:35;;;;;;;15.10;6.10;;;;;;;13.93;86.37;100279.77;109775;1284;22860;-78
2023/09/11 02:44:08;;;;;;;15.20;6.20;;;;;;;13.89;86.18;100280.15;109794;1284;22201;-78
2023/09/11 02:46:39;;;;;;;14.90;6.60;;;;;;;13.85;86.36;100280.17;109777;1284;22250;-78
2023/09/11 02:49:10;;;;;;;15.20;6.50;;;;;;;13.81;86.32;100281.13;109785;1284;22205;-78
2023/09/11 02:51:40;;;;;;;15.40;6.30;;;;;;;13.77;86.24;100279.77;109796;1280;22621;-78
2023/09/11 02:54:11;;;;;;;15.20;6.30;;;;;;;13.74;86.36;100282.09;109771;1281;22165;-77
2023/09/11 02:56:42;;;;;;;12.80;5.20;;;;;;;13.69;86.48;100283.34;109817;1284;22903;-78
2023/09/11 02:59:12;;;;;;;13.10;6.10;;;;;;;13.65;86.62;100283.56;109764;1284;22170;-78
2023/09/11 03:01:43;;;;;;;14.20;6.10;;;;;;;13.61;86.51;100281.17;109705;1285;22186;-78
2023/09/11 03:04:14;;;;;;;16.90;6.30;;;;;;;13.57;86.57;100279.63;109787;1276;22642;-77
2023/09/11 03:06:44;;;;;;;16.10;6.90;;;;;;;13.54;86.44;100281.03;109765;1284;22914;-78
2023/09/11 03:09:16;;;;;;;14.50;5.80;;;;;;;13.50;86.38;100278.51;109794;1284;22173;-77
2023/09/11 03:11:47;;;;;;;16.20;6.00;;;;;;;13.47;86.61;100274.77;109817;1279;22336;-77
2023/09/11 03:14:17;;;;;;;14.30;5.80;;;;;;;13.44;86.58;100273.88;109772;1284;22165;-78
2023/09/11 03:16:48;;;;;;;18.70;6.30;;;;;;;13.41;86.43;100273.08;109778;1274;22206;-78
2023/09/11 03:19:19;;;;;;;17.10;6.00;;;;;;;13.39;86.55;100273.31;109767;1284;22203;-77
2023/09/11 03:21:50;;;;;;;18.00;5.90;;;;;;;13.36;86.60;100268.13;109778;1279;22192;-77
2023/09/11 03:24:22;;;;;;;20.00;5.70;;;;;;;13.33;86.71;100263.89;109768;1280;22180;-78
2023/09/11 03:26:52;;;;;;;17.10;6.10;;;;;;;13.31;86.81;100267.80;109765;1284;22195;-78
2023/09/11 03:29:23;;;;;;;18.30;5.90;;;;;;;13.29;87.04;100269.30;109775;1284;22928;-78
2023/09/11 03:31:54;;;;;;;14.30;5.60;;;;;;;13.27;87.10;100271.64;109803;1284;22216;-77
2023/09/11 03:34:25;;;;;;;14.30;5.20;;;;;;;13.27;86.99;100264.95;109783;1284;22184;-77
2023/09/11 03:36:55;;;;;;;18.60;6.30;;;;;;;13.25;87.10;100265.52;109819;1284;22337;-77
2023/09/11 03:39:26;;;;;;;17.60;7.10;;;;;;;13.23;86.91;100265.48;109778;1279;22160;-78
2023/09/11 03:41:57;;;;;;;15.70;6.40;;;;;;;13.20;87.01;100263.16;109782;1273;22352;-78
2023/09/11 03:44:28;;;;;;;15.50;6.40;;;;;;;13.17;87.05;100259.52;109784;1283;22148;-77
2023/09/11 03:46:59;;;;;;;14.70;5.10;;;;;;;13.14;87.09;100260.41;109764;1277;23268;-78
2023/09/11 03:49:29;;;;;;;11.60;4.90;;;;;;;13.11;87.15;100259.82;109748;1279;22189;-77
2023/09/11 03:52:00;;;;;;;20.30;5.30;;;;;;;13.09;87.20;100260.66;109690;1277;22810;-76
2023/09/11 03:54:31;;;;;;;15.60;5.90;;;;;;;13.06;87.37;100263.54;109737;1280;22207;-75
2023/09/11 03:57:02;;;;;;;14.50;5.80;;;;;;;13.04;87.42;100260.46;109718;1277;22407;-75
2023/09/11 03:59:33;;;;;;;14.80;5.50;;;;;;;13.01;87.32;100263.02;109743;1279;22340;-75
2023/09/11 04:02:04;;;;;;;13.70;5.50;;;;;;;12.98;87.35;100259.98;109753;1280;22183;-75
2023/09/11 04:04:35;;;;;;;11.60;4.60;;;;;;;12.96;87.29;100258.94;109754;1280;22349;-75
2023/09/11 04:07:06;;;;;;;12.90;4.90;;;;;;;12.93;87.34;100255.66;109790;1284;22892;-75
2023/09/11 04:09:37;;;;;;;13.00;4.70;;;;;;;12.91;87.29;100255.23;109755;1280;22317;-76
2023/09/11 04:12:08;;;;;;;14.30;4.80;;;;;;;12.89;87.35;100257.46;109781;1284;22160;-77
2023/09/11 04:14:39;;;;;;;13.40;4.50;;;;;;;12.87;87.41;100259.31;109753;1284;23171;-77
2023/09/11 04:17:11;;;;;;;12.20;5.10;;;;;;;12.85;87.36;100260.41;109749;1284;22412;-77
2023/09/11 04:19:41;;;;;;;14.50;5.30;;;;;;;12.84;87.38;100257.45;109743;1284;22434;-79
2023/09/11 04:22:12;;;;;;;12.30;4.20;;;;;;;12.82;87.33;100255.30;109734;1284;22223;-79
2023/09/11 04:24:43;;;;;;;14.40;5.70;;;;;;;12.81;87.41;100253.70;109777;1284;22256;-79
2023/09/11 04:27:13;;;;;;;11.60;4.20;;;;;;;12.80;87.43;100255.67;109770;1284;22262;-79
2023/09/11 04:29:44;;;;;;;15.10;4.60;;;;;;;12.79;87.62;100256.38;109769;1283;22949;-79
2023/09/11 04:32:17;;;;;;;14.40;5.60;;;;;;;12.78;87.82;100253.78;109733;1280;22310;-79
2023/09/11 04:34:48;;;;;;;13.40;4.50;;;;;;;12.79;87.90;100253.11;109748;1283;22489;-77
2023/09/11 04:37:19;;;;;;;13.80;4.90;;;;;;;12.79;87.85;100255.98;109770;1274;22144;-78
2023/09/11 04:39:50;;;;;;;13.10;4.20;;;;;;;12.79;88.27;100253.52;109703;1278;22542;-76
2023/09/11 04:42:21;;;;;;;15.90;5.40;;;;;;;12.79;88.39;100251.33;109747;1278;22355;-78
2023/09/11 04:44:51;;;;;;;14.20;5.10;;;;;;;12.79;88.42;100255.41;109766;1280;22206;-78
2023/09/11 04:47:22;;;;;;;14.80;5.00;;;;;;;12.80;88.43;100257.30;109769;1284;22256;-78
2023/09/11 04:49:53;;;;;;;18.40;5.20;;;;;;;12.80;88.65;100255.84;109679;1277;22156;-78
2023/09/11 04:52:24;;;;;;;15.00;4.70;;;;;;;12.81;88.77;100250.80;109773;1280;22175;-78
2023/09/11 04:54:58;;;;;;;13.50;5.30;;;;;;;12.82;88.83;100254.73;109731;1284;22315;-78
2023/09/11 04:57:29;;;;;;;17.20;5.30;;;;;;;12.83;88.97;100250.90;109802;1282;22824;-78
2023/09/11 05:00:00;;;;;;;13.10;5.20;;;;;;;12.86;89.21;100252.53;109796;1277;22638;-78
2023/09/11 05:02:31;;;;;;;14.60;4.90;;;;;;;12.87;89.32;100248.35;109806;1282;22336;-78
2023/09/11 05:05:03;;;;;;;13.90;5.30;;;;;;;12.89;89.60;100248.29;109758;1283;22957;-78
2023/09/11 05:07:36;;;;;;;16.60;5.20;;;;;;;12.92;89.70;100247.49;109695;1273;22161;-78
2023/09/11 05:10:09;;;;;;;18.10;5.10;;;;;;;12.95;89.80;100248.14;109790;1283;22913;-77
2023/09/11 05:12:40;;;;;;;14.40;4.70;;;;;;;12.98;89.99;100246.06;109771;1284;22337;-78
2023/09/11 05:15:11;;;;;;;13.10;4.80;;;;;;;13.02;90.08;100247.33;109766;1284;23017;-78
2023/09/11 05:17:44;;;;;;;16.50;5.20;;;;;;;13.06;90.21;100247.50;109781;1282;22195;-78
2023/09/11 05:20:18;;;;;;;16.50;5.50;;;;;;;13.11;90.20;100242.39;109804;1284;22124;-77
2023/09/11 05:22:49;;;;;;;15.20;5.50;;;;;;;13.16;90.22;100245.14;109776;1284;22328;-78
2023/09/11 05:25:20;;;;;;;12.50;4.90;;;;;;;13.21;90.48;100250.89;109774;1283;22325;-78
2023/09/11 05:27:51;;;;;;;14.40;4.90;;;;;;;13.26;90.95;100247.31;109786;1283;23294;-78
2023/09/11 05:30:22;;;;;;;11.40;4.10;;;;;;;13.31;90.89;100246.18;109804;1282;22946;-78
2023/09/11 05:32:55;;;;;;;14.00;4.20;;;;;;;13.37;90.64;100243.56;109789;1284;22824;-78
2023/09/11 05:35:26;;;;;;;12.30;4.80;;;;;;;13.43;90.84;100246.27;109772;1283;22167;-78
2023/09/11 05:37:58;;;;;;;15.90;5.30;;;;;;;13.50;90.85;100248.52;109783;1281;23438;-78
2023/09/11 05:40:29;;;;;;;19.10;6.80;;;;;;;13.58;91.18;100250.25;109796;1283;22641;-78
2023/09/11 05:43:00;;;;;;;18.90;6.10;;;;;;;13.66;91.44;100249.04;109809;1283;22322;-78
2023/09/11 05:45:30;;;;;;;22.20;6.00;;;;;;;13.74;91.46;100250.06;109776;1280;22191;-78
2023/09/11 05:48:02;;;;;;;19.10;6.60;;;;;;;13.81;91.60;100247.61;109811;1283;22573;-78
2023/09/11 05:50:32;;;;;;;19.30;6.60;;;;;;;13.89;91.70;100246.98;109801;1283;22181;-78
2023/09/11 05:53:04;;;;;;;20.60;6.40;;;;;;;13.96;91.84;100249.46;109778;1283;22235;-78
2023/09/11 05:55:35;;;;;;;19.80;7.70;;;;;;;14.03;91.94;100246.56;109798;1276;23276;-78
2023/09/11 05:58:06;;;;;;;28.60;8.00;;;;;;;14.10;92.11;100239.80;109760;1283;22166;-78
2023/09/11 06:00:37;;;;;;;29.20;7.30;;;;;;;14.18;92.19;100240.40;109765;1280;22174;-78
2023/09/11 06:03:08;;;;;;;29.20;8.00;;;;;;;14.25;92.30;100238.70;109791;1284;22911;-78
2023/09/11 06:05:40;;;;;;;30.30;8.60;;;;;;;14.33;92.37;100242.67;109760;1281;22151;-78
2023/09/11 06:08:13;;;;;;;35.60;8.90;;;;;;;14.41;92.62;100243.02;109768;1278;22290;-78
2023/09/11 06:10:47;;;;;;;24.70;7.60;;;;;;;14.50;92.81;100246.11;109727;1278;22133;-78
2023/09/11 06:13:19;;;;;;;28.40;8.40;;;;;;;14.58;93.21;100241.23;109760;1280;22296;-78
2023/09/11 06:15:50;;;;;;;25.80;8.20;;;;;;;14.67;93.71;100238.19;109725;1283;22250;-78
2023/09/11 06:18:21;;;;;;;33.60;8.80;;;;;;;14.76;94.11;100236.01;109671;1276;22339;-78
2023/09/11 06:20:52;;;;;;;27.70;10.10;;;;;;;14.86;94.57;100234.60;109703;1276;22194;-79
2023/09/11 06:23:23;;;;;;;29.80;11.30;;;;;;;14.96;95.17;100235.33;109752;1284;22160;-78
2023/09/11 06:25:53;;;;;;;22.10;9.50;;;;;;;15.08;95.15;100235.73;109739;1278;22783;-79
2023/09/11 06:28:29;;;;;;;25.40;10.50;;;;;;;15.17;95.11;100233.96;109707;1280;22373;-79
2023/09/11 06:31:00;;;;;;;24.40;10.80;;;;;;;15.25;95.17;100236.02;109740;1281;22318;-78
2023/09/11 06:33:31;;;;;;;26.30;11.10;;;;;;;15.34;95.19;100233.04;109743;1277;22141;-78
2023/09/11 06:36:02;;;;;;;24.90;10.60;;;;;;;15.43;95.56;100236.78;109744;1281;22324;-79
2023/09/11 06:38:33;;;;;;;23.90;10.70;;;;;;;15.53;95.73;100234.14;109740;1284;22305;-79
2023/09/11 06:41:09;;;;;;;26.50;12.10;;;;;;;15.63;95.79;100241.33;109752;1284;22192;-80
2023/09/11 06:43:41;;;;;;;30.00;12.40;;;;;;;15.73;96.05;100239.78;109771;1284;22158;-80
2023/09/11 06:46:12;;;;;;;21.70;9.50;;;;;;;15.84;96.15;100240.83;109781;1282;22152;-80
2023/09/11 06:48:43;;;;;;;25.30;11.40;;;;;;;15.94;96.31;100235.52;109774;1284;22157;-80
2023/09/11 06:51:13;;;;;;;22.70;10.90;;;;;;;16.05;95.99;100235.70;109773;1284;22193;-79
2023/09/11 06:53:44;;;;;;;25.30;11.50;;;;;;;16.15;95.99;100237.41;109810;1284;22135;-79
2023/09/11 06:56:15;;;;;;;21.20;10.60;;;;;;;16.25;96.08;100239.01;109724;1277;22176;-79
2023/09/11 06:58:46;;;;;;;22.60;10.60;;;;;;;16.34;95.93;100239.48;109729;1283;22987;-80
2023/09/11 07:01:17;;;;;;;22.60;10.00;;;;;;;16.45;96.14;100241.49;109760;1284;23034;-78
2023/09/11 07:03:49;;;;;;;28.90;12.60;;;;;;;16.58;96.36;100240.00;109717;1284;22282;-79
2023/09/11 07:06:20;;;;;;;29.60;12.80;;;;;;;16.70;95.80;100245.47;109790;1283;22174;-79
2023/09/11 07:08:51;;;;;;;21.70;11.70;;;;;;;16.81;95.80;100245.40;109778;1284;22159;-79
2023/09/11 07:11:22;;;;;;;26.00;12.60;;;;;;;16.96;96.28;100245.72;109811;1284;22290;-79
2023/09/11 07:13:54;;;;;;;28.40;11.70;;;;;;;17.11;96.21;100244.42;109786;1284;22182;-80
2023/09/11 07:16:25;;;;;;;32.70;11.90;;;;;;;17.25;96.10;100240.37;109814;1284;23098;-79
2023/09/11 07:18:56;;;;;;;29.20;11.90;;;;;;;17.41;95.97;100243.16;109807;1284;22277;-79
2023/09/11 07:21:27;;;;;;;30.50;12.00;;;;;;;17.56;95.60;100242.76;109792;1271;22917;-79
2023/09/11 07:23:57;;;;;;;26.80;12.00;;;;;;;17.69;94.84;100243.80;109802;1273;22291;-79
2023/09/11 07:26:28;;;;;;;32.40;10.90;;;;;;;17.82;94.93;100242.08;109795;1284;22296;-79
2023/09/11 07:29:01;;;;;;;29.30;11.30;;;;;;;18.00;94.98;100241.84;109806;1282;23135;-79
2023/09/11 07:31:33;;;;;;;28.20;10.10;;;;;;;18.14;94.33;100244.09;109823;1284;22157;-79
2023/09/11 07:34:06;;;;;;;28.00;10.10;;;;;;;18.26;93.84;100240.14;109772;1281;22319;-78
2023/09/11 07:36:36;;;;;;;27.10;10.80;;;;;;;18.38;93.48;100242.77;109774;1283;23201;-79
2023/09/11 07:39:07;;;;;;;28.90;9.50;;;;;;;18.47;93.26;100242.00;109797;1277;22193;-79
2023/09/11 07:41:41;;;;;;;27.40;9.10;;;;;;;18.59;93.09;100241.04;109772;1284;22201;-79
2023/09/11 07:44:12;;;;;;;24.50;9.50;;;;;;;18.72;93.07;100241.11;109777;1276;22424;-79
2023/09/11 07:46:42;;;;;;;26.30;9.90;;;;;;;18.84;92.72;100241.85;109779;1284;22173;-79
2023/09/11 07:49:13;;;;;;;26.80;8.10;;;;;;;18.95;92.35;100239.64;109792;1284;22199;-79
2023/09/11 07:51:44;;;;;;;31.60;8.60;;;;;;;19.09;92.66;100239.27;109774;1284;22190;-79
2023/09/11 07:54:15;;;;;;;28.10;7.80;;;;;;;19.26;92.14;100234.20;109805;1275;22747;-79
2023/09/11 07:56:46;;;;;;;23.90;8.30;;;;;;;19.42;91.96;100233.57;109791;1284;22383;-78
2023/09/11 07:59:17;;;;;;;17.50;7.20;;;;;;;19.55;91.32;100235.40;109794;1280;22150;-79
2023/09/11 08:01:48;;;;;;;20.40;7.70;;;;;;;19.64;90.90;100237.03;109810;1273;22150;-79
2023/09/11 08:04:19;;;;;;;18.50;7.60;;;;;;;19.78;90.38;100239.10;109798;1268;22600;-79
2023/09/11 08:06:49;;;;;;;18.40;7.70;;;;;;;19.84;90.03;100237.11;109803;1284;22964;-79
2023/09/11 08:09:20;;;;;;;19.80;7.00;;;;;;;19.95;90.01;100240.21;109815;1284;22275;-79
2023/09/11 08:11:53;;;;;;;21.90;7.00;;;;;;;20.09;89.39;100239.58;109732;1283;22184;-80
2023/09/11 08:14:24;;;;;;;15.90;6.70;;;;;;;20.18;89.24;100240.85;109804;1284;22262;-79
2023/09/11 08:16:54;;;;;;;20.60;6.60;;;;;;;20.34;89.25;100239.83;109797;1284;22279;-79
2023/09/11 08:19:28;;;;;;;17.60;7.00;;;;;;;20.46;88.58;100237.52;109801;1284;22198;-79
2023/09/11 08:21:59;;;;;;;18.40;6.30;;;;;;;20.56;88.42;100240.53;109821;1284;22351;-80
2023/09/11 08:24:30;;;;;;;19.70;7.10;;;;;;;20.69;88.21;100236.95;109797;1284;22165;-79
2023/09/11 08:27:01;;;;;;;15.90;7.00;;;;;;;20.78;87.42;100234.48;109804;1284;22202;-79
2023/09/11 08:29:32;;;;;;;17.60;6.20;;;;;;;20.86;87.31;100234.55;109799;1284;22160;-79
2023/09/11 08:32:03;;;;;;;20.70;6.80;;;;;;;20.94;86.98;100230.17;109746;1277;23007;-80
2023/09/11 08:34:34;;;;;;;21.60;6.50;;;;;;;21.04;86.99;100231.47;109812;1284;22223;-81
2023/09/11 08:37:05;;;;;;;17.90;6.80;;;;;;;21.15;86.53;100236.90;109820;1284;22182;-80
2023/09/11 08:39:35;;;;;;;18.10;6.60;;;;;;;21.26;86.25;100238.83;109801;1284;22315;-80
2023/09/11 08:42:08;;;;;;;18.00;6.70;;;;;;;21.41;85.80;100238.73;109799;1284;23329;-79
2023/09/11 08:44:39;;;;;;;14.90;6.10;;;;;;;21.49;85.02;100238.98;109800;1284;22776;-80
2023/09/11 08:47:12;;;;;;;17.60;6.50;;;;;;;21.52;84.57;100239.11;109802;1284;22565;-80
2023/09/11 08:49:51;;;;;;;17.70;7.30;;;;;;;21.59;84.62;100240.41;109805;1272;23071;-80
2023/09/11 08:52:22;;;;;;;16.90;6.30;;;;;;;21.72;84.23;100234.27;109801;1284;22189;-80
2023/09/11 08:54:58;;;;;;;15.60;6.40;;;;;;;21.84;83.91;100237.89;109803;1277;22137;-79
2023/09/11 08:57:32;;;;;;;15.90;6.10;;;;;;;21.92;83.73;100234.89;109795;1284;22175;-80
2023/09/11 09:00:09;;;;;;;17.20;6.10;;;;;;;22.02;83.58;100236.87;109799;1284;23050;-80
2023/09/11 09:02:40;;;;;;;17.00;6.20;;;;;;;22.14;82.85;100235.86;109837;1284;22645;-80
2023/09/11 09:05:11;;;;;;;21.40;7.00;;;;;;;22.25;82.84;100233.84;109789;1277;22215;-79
2023/09/11 09:07:43;;;;;;;14.70;6.00;;;;;;;22.32;82.45;100228.62;109822;1284;22350;-80
2023/09/11 09:10:14;;;;;;;15.20;6.30;;;;;;;22.42;82.05;100231.64;109797;1280;22897;-80
2023/09/11 09:12:45;;;;;;;15.50;5.90;;;;;;;22.51;81.35;100229.90;109828;1284;22276;-80
2023/09/11 09:15:17;;;;;;;16.50;6.20;;;;;;;22.62;81.23;100230.10;109807;1284;22200;-80
2023/09/11 09:17:49;;;;;;;16.20;5.80;;;;;;;22.69;81.07;100229.96;109805;1284;22646;-80
2023/09/11 09:20:20;;;;;;;16.80;5.70;;;;;;;22.77;80.24;100236.10;109798;1280;22342;-80
2023/09/11 09:22:58;;;;;;;15.80;5.90;;;;;;;22.83;79.52;100226.44;109805;1280;22169;-79
2023/09/11 09:25:31;;;;;;;15.60;5.50;;;;;;;22.94;78.46;100227.54;109782;1276;22215;-79
2023/09/11 09:28:02;;;;;;;15.40;5.30;;;;;;;23.02;78.16;100226.77;109825;1277;22210;-80
2023/09/11 09:30:33;;;;;;;14.20;5.40;;;;;;;23.11;77.89;100226.36;109805;1284;22127;-79
2023/09/11 09:33:14;;;;;;;15.90;5.40;;;;;;;23.19;77.71;100225.12;109826;1284;22328;-80
2023/09/11 09:35:46;;;;;;;17.30;5.30;;;;;;;23.29;77.12;100216.96;107377;1284;22574;-79
2023/09/11 09:38:22;;;;;;;15.60;5.10;;;;;;;23.38;76.71;100215.14;107731;1276;22536;-79
2023/09/11 09:40:54;;;;;;;16.50;5.10;;;;;;;23.46;76.46;100212.17;107119;1277;22559;-79
2023/09/11 09:43:25;;;;;;;13.20;4.90;;;;;;;23.56;76.15;100210.01;109800;1284;22172;-79
2023/09/11 09:45:56;;;;;;;16.90;5.00;;;;;;;23.65;75.76;100205.94;109779;1276;23119;-80
2023/09/11 09:48:27;;;;;;;21.10;6.00;;;;;;;23.72;75.33;100206.30;109798;1276;22163;-80
2023/09/11 09:50:59;;;;;;;15.40;5.20;;;;;;;23.78;74.88;100206.90;109831;1284;22189;-80
2023/09/11 09:53:33;;;;;;;13.50;5.30;;;;;;;23.82;74.77;100199.45;109811;1284;22158;-80
2023/09/11 09:56:07;;;;;;;14.30;4.50;;;;;;;23.87;74.46;100194.31;109763;1277;22323;-79
2023/09/11 09:58:40;;;;;;;14.40;4.10;;;;;;;23.92;73.57;100190.35;109832;1277;22320;-80
2023/09/11 10:01:12;;;;;;;12.50;5.10;;;;;;;24.00;72.97;100190.30;109796;1276;22148;-80
2023/09/11 10:03:45;;;;;;;19.40;4.90;;;;;;;24.08;71.90;100188.33;109836;1270;23408;-80
2023/09/11 10:06:19;;;;;;;13.70;5.00;;;;;;;24.18;71.61;100187.38;109671;1276;172340;-80
2023/09/11 10:09:07;;;;;;;16.50;5.00;;;;;;;24.27;71.37;100184.80;109812;1277;22154;-80
2023/09/11 10:11:39;;;;;;;14.20;4.20;;;;;;;24.38;71.13;100181.94;109817;1284;22180;-80
2023/09/11 10:14:11;;;;;;;14.60;5.20;;;;;;;24.45;70.34;100179.96;109818;1280;22273;-80
2023/09/11 10:16:43;;;;;;;14.90;4.20;;;;;;;24.51;69.43;100177.54;109809;1284;22149;-80
2023/09/11 10:19:16;;;;;;;18.90;5.60;;;;;;;24.55;69.00;100177.60;109799;1284;22164;-80
2023/09/11 10:21:46;;;;;;;13.40;4.90;;;;;;;24.59;68.48;100172.94;109834;1284;22130;-80
2023/09/11 10:24:17;;;;;;;14.20;4.50;;;;;;;24.63;68.09;100171.29;109778;1277;22204;-80
2023/09/11 10:26:53;;;;;;;19.90;4.70;;;;;;;24.69;67.77;100169.20;109789;1284;22912;-80
2023/09/11 10:29:36;;;;;;;12.50;4.30;;;;;;;24.79;67.51;100168.90;109806;1277;22168;-79
2023/09/11 10:32:19;;;;;;;19.30;4.90;;;;;;;24.90;65.92;100166.31;109798;1280;22176;-80
2023/09/11 10:34:51;;;;;;;14.20;4.60;;;;;;;24.96;65.46;100160.72;109749;1280;22841;-79
2023/09/11 10:37:23;;;;;;;14.90;4.30;;;;;;;25.03;65.24;100160.67;109801;1277;22946;-79
2023/09/11 10:39:55;;;;;;;14.90;4.40;;;;;;;25.07;64.70;100151.53;109811;1277;22147;-80
2023/09/11 10:42:28;;;;;;;13.40;4.00;;;;;;;25.15;64.54;100149.19;109808;1283;22212;-80
2023/09/11 10:45:00;;;;;;;16.20;4.50;;;;;;;25.22;63.95;100148.52;109806;1283;23202;-80
2023/09/11 10:47:30;;;;;;;12.00;3.60;;;;;;;25.27;63.36;100145.58;109839;1284;23328;-80
2023/09/11 10:50:01;;;;;;;12.90;4.00;;;;;;;25.34;62.35;100148.44;109796;1284;22333;-80
2023/09/11 10:52:33;;;;;;;12.50;4.60;;;;;;;25.41;62.50;100144.48;109819;1279;22165;-80
2023/09/11 10:55:04;;;;;;;13.30;4.40;;;;;;;25.50;62.27;100137.06;109771;1284;22236;-80
2023/09/11 10:57:35;;;;;;;11.80;3.60;;;;;;;25.59;61.67;100140.92;109813;1284;22250;-80
2023/09/11 11:00:10;;;;;;;10.20;3.30;;;;;;;25.65;60.19;100137.39;109808;1276;22324;-80
2023/09/11 11:02:40;;;;;;;11.70;3.30;;;;;;;25.70;59.57;100135.04;109814;1284;22266;-80
2023/09/11 11:05:15;;;;;;;13.20;2.90;;;;;;;25.77;58.89;100135.08;109810;1273;22321;-80
2023/09/11 11:07:50;;;;;;;13.50;3.40;;;;;;;25.84;59.02;100132.55;109814;1280;22286;-80
2023/09/11 11:10:21;;;;;;;9.10;3.20;;;;;;;25.92;58.92;100129.88;109739;1277;22169;-80
2023/09/11 11:13:07;;;;;;;11.00;3.30;;;;;;;25.95;58.45;100131.92;109754;1284;23318;-80
2023/09/11 11:15:38;;;;;;;8.20;3.30;;;;;;;26.00;57.60;100132.27;109811;1281;22169;-80
2023/09/11 11:18:11;;;;;;;8.10;3.00;;;;;;;26.00;57.08;100128.48;109799;1284;23028;-80
2023/09/11 11:21:05;;;;;;;13.40;3.40;;;;;;;26.00;56.58;100129.16;109817;1281;22186;-80
2023/09/11 11:23:52;;;;;;;15.60;4.20;;;;;;;26.03;56.18;100127.48;109837;1277;22156;-80
2023/09/11 11:26:25;;;;;;;12.80;3.10;;;;;;;26.07;56.01;100124.75;109826;1284;22233;-80
2023/09/11 11:28:58;;;;;;;11.70;3.00;;;;;;;26.13;55.14;100125.30;109804;1276;22195;-80
2023/09/11 11:31:31;;;;;;;10.20;3.20;;;;;;;26.20;54.65;100123.95;109832;1277;22212;-80